< Typhoon 195905 1959 Season Typhoon 195907 >
Typhoon 195906 (ELLEN)
General InformationTrack Information on Google Maps || Disaster Info.ResourceGoogle EarthGE AnimationAtom FeedGeoJSON
Detalied Best Track (Time Zone = UTC)
Year Month Day Hour Lat. Long. Pressure (hPa) Wind (kt) Class Image Chart
1959 8 1 00 18.0 140.0 1004 0 2 -- Chart
1959 8 1 06 19.0 139.4 1002 0 2 -- Chart
1959 8 1 12 19.4 139.0 1000 0 2 -- Chart
1959 8 1 18 20.0 138.5 1000 0 2 -- Chart
1959 8 2 00 20.2 138.0 1000 0 2 -- Chart
1959 8 2 06 20.5 137.5 1000 0 2 -- Chart
1959 8 2 12 21.0 136.9 996 0 2 -- Chart
1959 8 2 18 21.8 136.0 996 0 9 -- Chart
1959 8 3 00 22.1 135.3 995 0 9 -- Chart
1959 8 3 06 22.6 134.8 980 0 9 -- Chart
1959 8 3 12 23.6 133.8 980 0 9 -- Chart
1959 8 3 18 23.9 132.5 980 0 9 -- Chart
1959 8 4 00 24.1 130.9 975 0 9 -- Chart
1959 8 4 06 24.3 130.2 975 0 9 -- Chart
1959 8 4 12 24.8 129.4 970 0 9 -- Chart
1959 8 4 18 25.4 129.0 970 0 9 -- Chart
1959 8 5 00 26.3 128.7 970 0 9 -- Chart
1959 8 5 06 27.4 128.2 970 0 9 -- Chart
1959 8 5 12 28.2 127.8 970 0 9 -- Chart
1959 8 5 18 29.0 127.1 970 0 9 -- Chart
1959 8 6 00 29.4 126.9 965 0 9 -- Chart
1959 8 6 06 29.8 126.9 965 0 9 -- Chart
1959 8 6 12 30.3 127.1 965 0 9 -- Chart
1959 8 6 18 30.4 127.8 965 0 9 -- Chart
1959 8 7 00 30.5 128.3 965 0 9 -- Chart
1959 8 7 06 30.5 128.7 965 0 9 -- Chart
1959 8 7 12 30.6 129.3 965 0 9 -- Chart
1959 8 7 18 30.8 130.2 966 0 9 -- Chart
1959 8 8 00 31.4 131.3 969 0 9 -- Chart
1959 8 8 06 32.3 132.3 970 0 9 -- Chart
1959 8 8 12 33.2 133.8 972 0 9 -- Chart
1959 8 8 18 34.1 135.2 974 0 9 -- Chart
1959 8 9 00 34.9 136.9 977 0 9 -- Chart
1959 8 9 06 35.2 138.8 980 0 9 -- Chart
1959 8 9 12 36.0 141.0 984 0 9 -- Chart
1959 8 9 18 36.6 143.4 986 0 9 -- Chart
1959 8 10 00 38.0 146.0 988 0 6 -- Chart
1959 8 10 06 39.0 147.0 988 0 6 -- Chart
1959 8 10 12 40.0 148.0 990 0 6 -- Chart
1959 8 10 18 41.0 148.4 992 0 6 -- Chart
1959 8 11 00 41.8 149.5 998 0 6 -- Chart
1959 8 11 06 43.0 152.0 998 0 6 -- Chart
1959 8 11 12 43.0 153.0 998 0 6 -- Chart
1959 8 11 18 43.8 156.2 998 0 6 -- Chart
1959 8 12 00 45.0 160.5 998 0 6 -- Chart
1959 8 12 06 45.0 163.0 998 0 6 -- Chart
1959 8 12 12 44.2 165.0 1000 0 6 -- Chart
1959 8 12 18 44.5 170.0 1000 0 6 -- Chart
1959 8 13 00 44.3 173.2 996 0 6 -- Chart
1959 8 13 06 44.4 178.5 1000 0 6 -- Chart
1959 8 13 12 46.0 184.0 1002 0 6 -- Chart
Japan Meteorological Agency Best Track Data | Correction Date : 1991-07-16
< Typhoon 195905 1959 Season Typhoon 195907 >

Help